Airfield :
LOGIN :

Register | Disclaimer

   EN    FR    IT 

 










Legend :    VFR   Marginal VFR   IFR   Intensive IFR   Very Intensive IFR
Visi :
Ceiling :
>= 8 km
>= 3000ft
5 to 8 km
1000 to 3000 ft
1500m to 5 km
500 to 1000 ft
800 to 1500m
200 to 500 ft
< 800m
< 200 ft
Symbols :   Thunderstorms  Fog  Heavy snow  Heavy precipitations  Wind > 20 kt
SIGMETs :     Misc.  Thunderstorms  Icing  Turbulence  Mountain Waves  Volcanic Ashes






- Airport Elevation : 794 ft


LKCV - Čáslav Air Base

CURRENT METAR :
  • 021330Z VRB04KT CAVOK 12/M07 Q1010 NOSIG RMK BLU BLU

EXPIRED METARs :
  • 021300Z VRB03KT CAVOK 11/M06 Q1011 NOSIG RMK BLU BLU
  • 021230Z 30004KT 250V050 CAVOK 11/M06 Q1011 NOSIG RMK BLU BLU
  • 021200Z VRB03KT CAVOK 11/M04 Q1012 NOSIG RMK BLU BLU
  • 021130Z VRB03KT CAVOK 10/M05 Q1012 NOSIG RMK BLU BLU
  • 021100Z 31002KT CAVOK 10/M05 Q1013 NOSIG RMK BLU BLU
  • 021030Z 34003KT 280V070 CAVOK 09/M06 Q1013 NOSIG RMK BLU BLU

TAF TAF LKCV
Valid from the 02 at 12:00 until the 03 at 12:00 UTC


021100Z 0212/0312 01004KT CAVOK
BECMG 0213/0215 22006KT
BECMG 0300/0303 26010KT
BECMG 0306/0308 BKN030
TEMPO 0310/0312 30014KT 7000 SHRA BKN020



MET'MAP, your aeronautical weather chart ! - Copyright ORBIFLY December 2007 - Disclaimer

ORBIFLY MET'MAP TEAM :

Programming & Development : Alexandra Zaïnal
Concept & original design : Baudouin d'Aumeries
Assistance for programming : Marc-Olivier Méhu
Technical & hardware support : Manuel Goepfert

Contact : metmap@orbifly.com




SOURCES & CREDITS :

   NOAA